createdAt,value
2019-05-26T00:07:52.035Z,100971.02
2019-05-26T00:16:13.277Z,100969.02
2019-05-26T00:24:35.272Z,100964.76
2019-05-26T00:32:56.413Z,100954.23
2019-05-26T00:41:17.546Z,100953.31
2019-05-26T00:49:38.776Z,100947.12
2019-05-26T00:57:59.921Z,100944.91
2019-05-26T01:06:21.967Z,100934.82
2019-05-26T01:14:43.068Z,100924.61
2019-05-26T01:23:04.241Z,100924.38
2019-05-26T01:31:25.743Z,100927.50
2019-05-26T01:39:47.192Z,100915.80
2019-05-26T01:48:08.648Z,100919.23
2019-05-26T01:56:29.768Z,100916.87
2019-05-26T02:04:51.347Z,100923.30
2019-05-26T02:13:12.574Z,100913.56
2019-05-26T02:21:34.063Z,100907.14
2019-05-26T02:29:55.277Z,100906.47
2019-05-26T02:38:17.436Z,100900.12
2019-05-26T02:46:38.909Z,100904.17
2019-05-26T02:55:00.378Z,100894.11
2019-05-26T03:03:21.543Z,100888.91
2019-05-26T03:11:42.759Z,100883.08
2019-05-26T03:20:04.246Z,100883.66
2019-05-26T03:28:25.647Z,100886.03
2019-05-26T03:36:46.781Z,100889.14
2019-05-26T03:45:08.302Z,100893.52
2019-05-26T03:53:29.785Z,100894.58
2019-05-26T04:01:51.022Z,100906.70
2019-05-26T04:10:12.142Z,100890.56
2019-05-26T04:18:34.274Z,100886.62
2019-05-26T04:26:55.486Z,100882.30
2019-05-26T04:35:16.621Z,100875.14
2019-05-26T04:43:37.867Z,100867.67
2019-05-26T04:51:59.981Z,100863.03
2019-05-26T05:00:21.502Z,100863.63
2019-05-26T05:08:42.646Z,100868.34
2019-05-26T05:17:04.766Z,100858.20
2019-05-26T05:25:26.273Z,100855.16
2019-05-26T05:33:47.417Z,100850.69
2019-05-26T05:42:08.837Z,100842.40
2019-05-26T05:50:30.083Z,100844.47
2019-05-26T05:58:52.342Z,100845.86
2019-05-26T06:07:13.860Z,100848.08
2019-05-26T06:15:35.012Z,100846.80
2019-05-26T06:32:22.611Z,100838.26
2019-05-26T06:49:10.586Z,100821.91
2019-05-26T06:57:32.263Z,100830.06
2019-05-26T07:05:54.022Z,100830.13
2019-05-26T07:14:15.276Z,100833.90
2019-05-26T07:22:51.887Z,100835.53
2019-05-26T07:31:13.552Z,100828.16
2019-05-26T07:39:34.794Z,100832.23
2019-05-26T07:48:01.984Z,100830.33
2019-05-26T07:56:27.530Z,100832.16
2019-05-26T08:05:00.968Z,100828.61
2019-05-26T08:13:37.375Z,100817.37
2019-05-26T08:30:21.446Z,100807.53
2019-05-26T08:38:42.729Z,100799.18
2019-05-26T08:47:05.308Z,100794.90
2019-05-26T08:55:28.113Z,100783.00
2019-05-26T09:03:49.526Z,100765.78
2019-05-26T09:12:11.293Z,100774.92
2019-05-26T09:20:32.474Z,100760.21
2019-05-26T09:28:53.636Z,100761.56
2019-05-26T09:37:14.761Z,100759.27
2019-05-26T09:45:35.879Z,100760.69
2019-05-26T10:02:24.009Z,100745.61
2019-05-26T10:10:45.720Z,100751.00
2019-05-26T10:19:07.146Z,100735.01
2019-05-26T10:27:29.277Z,100735.07
2019-05-26T10:35:51.022Z,100734.09
2019-05-26T10:44:13.101Z,100739.52
2019-05-26T10:52:34.500Z,100727.88
2019-05-26T11:00:55.641Z,100718.63
2019-05-26T11:09:17.036Z,100725.31
2019-05-26T11:17:38.545Z,100705.84
2019-05-26T11:25:59.758Z,100695.28
2019-05-26T11:34:21.025Z,100690.52
2019-05-26T11:42:44.812Z,100680.57
2019-05-26T11:51:05.285Z,100664.14
2019-05-26T11:59:26.401Z,100657.63
2019-05-26T12:07:48.351Z,100668.46
2019-05-26T12:16:09.537Z,100646.77
2019-05-26T12:24:31.813Z,100646.77
2019-05-26T12:32:53.082Z,100626.33
2019-05-26T12:41:14.209Z,100619.36
2019-05-26T12:49:35.324Z,100621.52
2019-05-26T12:57:56.869Z,100617.61
2019-05-26T13:06:18.371Z,100606.28
2019-05-26T13:14:39.848Z,100614.14
2019-05-26T13:23:01.000Z,100597.10
2019-05-26T13:31:22.431Z,100585.74
2019-05-26T13:39:43.583Z,100586.18
2019-05-26T13:48:04.699Z,100574.08
2019-05-26T13:56:30.679Z,100573.22
2019-05-26T14:04:51.787Z,100566.33
2019-05-26T14:13:13.030Z,100564.42
2019-05-26T14:30:00.766Z,100558.79
2019-05-26T14:38:22.301Z,100542.73
2019-05-26T14:46:43.595Z,100546.33
2019-05-26T15:03:31.172Z,100519.34
2019-05-26T15:11:52.625Z,100514.88
2019-05-26T15:20:14.081Z,100499.28
2019-05-26T15:28:35.285Z,100485.40
2019-05-26T15:36:56.770Z,100487.98
2019-05-26T15:45:18.253Z,100485.05
2019-05-26T15:53:39.705Z,100474.63
2019-05-26T16:02:00.982Z,100465.51
2019-05-26T16:10:22.184Z,100457.70
2019-05-26T16:18:43.378Z,100459.08
2019-05-26T16:27:18.746Z,100436.84
2019-05-26T16:35:28.465Z,100439.97
2019-05-26T16:43:53.192Z,100435.62
2019-05-26T16:52:15.774Z,100426.52
2019-05-26T17:00:38.005Z,100419.58
2019-05-26T17:08:59.258Z,100415.66
2019-05-26T17:17:20.526Z,100412.23
2019-05-26T17:25:41.651Z,100407.02
2019-05-26T17:34:02.796Z,100396.13
2019-05-26T17:42:24.050Z,100396.14
2019-05-26T17:50:45.306Z,100394.84
2019-05-26T17:59:06.448Z,100390.92
2019-05-26T18:07:27.598Z,100393.11
2019-05-26T18:15:49.813Z,100380.52
2019-05-26T18:24:10.946Z,100376.59
2019-05-26T18:32:32.456Z,100377.49
2019-05-26T18:40:53.909Z,100361.87
2019-05-26T18:49:15.057Z,100353.19
2019-05-26T18:57:36.270Z,100345.80
2019-05-26T19:05:57.423Z,100346.23
2019-05-26T19:14:18.538Z,100343.17
2019-05-26T19:22:39.986Z,100344.02
2019-05-26T19:31:01.212Z,100340.94
2019-05-26T19:39:22.460Z,100338.69
2019-05-26T19:47:43.997Z,100336.16
2019-05-26T19:56:05.127Z,100332.27
2019-05-26T20:04:26.704Z,100343.95
2019-05-26T20:12:48.149Z,100330.89
2019-05-26T20:21:09.301Z,100345.09
2019-05-26T20:29:30.411Z,100341.13
2019-05-26T20:37:51.713Z,100335.08
2019-05-26T20:46:16.080Z,100338.42
2019-05-26T20:54:37.557Z,100331.91
2019-05-26T21:02:58.758Z,100331.52
2019-05-26T21:11:20.941Z,100323.70
2019-05-26T21:19:42.431Z,100340.12
2019-05-26T21:28:03.578Z,100322.84
2019-05-26T21:36:24.734Z,100308.05
2019-05-26T21:44:46.747Z,100317.11
2019-05-26T21:53:11.802Z,100321.27
2019-05-26T22:01:32.929Z,100312.98
2019-05-26T22:09:54.065Z,100309.75
2019-05-26T22:18:15.605Z,100295.95
2019-05-26T22:26:36.760Z,100298.50
2019-05-26T22:34:58.071Z,100297.02
2019-05-26T22:43:19.489Z,100292.16
2019-05-26T22:51:40.757Z,100295.97
2019-05-26T23:00:01.903Z,100291.19
2019-05-26T23:08:23.154Z,100277.73
2019-05-26T23:16:44.638Z,100276.80
2019-05-26T23:25:05.746Z,100266.69
2019-05-26T23:33:28.268Z,100273.05
2019-05-26T23:41:49.545Z,100270.96
2019-05-26T23:50:10.797Z,100258.31
2019-05-26T23:58:32.063Z,100258.81
